createdAt,value
2023-01-06T00:01:40.515Z,100.00
2023-01-06T00:04:10.025Z,100.00
2023-01-06T00:06:39.202Z,100.00
2023-01-06T00:09:08.601Z,100.00
2023-01-06T00:11:38.442Z,100.00
2023-01-06T00:14:07.666Z,100.00
2023-01-06T00:16:38.254Z,100.00
2023-01-06T00:19:07.484Z,100.00
2023-01-06T00:21:36.658Z,100.00
2023-01-06T00:24:05.990Z,100.00
2023-01-06T00:26:35.116Z,100.00
2023-01-06T00:29:06.639Z,100.00
2023-01-06T00:31:38.430Z,100.00
2023-01-06T00:34:07.479Z,100.00
2023-01-06T00:36:36.687Z,100.00
2023-01-06T00:39:05.847Z,100.00
2023-01-06T00:41:52.305Z,100.00
2023-01-06T00:44:21.460Z,100.00
2023-01-06T00:46:52.306Z,100.00
2023-01-06T00:49:21.586Z,100.00
2023-01-06T00:51:50.848Z,100.00
2023-01-06T00:54:20.469Z,100.00
2023-01-06T00:56:51.687Z,100.00
2023-01-06T00:59:22.721Z,100.00
2023-01-06T01:01:56.488Z,100.00
2023-01-06T01:04:27.468Z,100.00
2023-01-06T01:06:56.799Z,100.00
2023-01-06T01:09:29.619Z,100.00
2023-01-06T01:12:12.931Z,100.00
2023-01-06T01:14:47.393Z,100.00
2023-01-06T01:17:20.453Z,100.00
2023-01-06T01:19:51.786Z,100.00
2023-01-06T01:22:21.258Z,100.00
2023-01-06T01:24:50.570Z,100.00
2023-01-06T01:27:21.042Z,100.00
2023-01-06T01:29:50.240Z,100.00
2023-01-06T01:32:21.012Z,100.00
2023-01-06T01:34:50.180Z,100.00
2023-01-06T01:37:19.489Z,100.00
2023-01-06T01:39:49.246Z,100.00
2023-01-06T01:42:21.977Z,100.00
2023-01-06T01:45:03.220Z,100.00
2023-01-06T01:47:47.354Z,100.00
2023-01-06T01:50:27.181Z,100.00
2023-01-06T01:53:02.221Z,100.00
2023-01-06T01:55:33.336Z,100.00
2023-01-06T01:58:07.771Z,100.00
2023-01-06T02:00:37.968Z,100.00
2023-01-06T02:03:09.002Z,100.00
2023-01-06T02:05:42.168Z,100.00
2023-01-06T02:08:24.464Z,100.00
2023-01-06T02:10:53.648Z,100.00
2023-01-06T02:13:22.958Z,100.00
2023-01-06T02:16:03.038Z,100.00
2023-01-06T02:18:49.147Z,100.00
2023-01-06T02:21:49.179Z,100.00
2023-01-06T02:25:11.739Z,100.00
2023-01-06T02:28:32.561Z,100.00
2023-01-06T02:31:51.239Z,100.00
2023-01-06T02:34:30.416Z,100.00
2023-01-06T02:37:09.941Z,100.00
2023-01-06T02:39:51.726Z,100.00
2023-01-06T02:42:31.566Z,100.00
2023-01-06T02:45:10.445Z,100.00
2023-01-06T02:47:53.982Z,100.00
2023-01-06T02:50:32.252Z,100.00
2023-01-06T02:53:12.618Z,100.00
2023-01-06T02:55:48.023Z,100.00
2023-01-06T02:58:27.767Z,100.00
2023-01-06T03:01:02.368Z,100.00
2023-01-06T03:03:37.530Z,100.00
2023-01-06T03:06:10.893Z,100.00
2023-01-06T03:08:41.130Z,100.00
2023-01-06T03:11:10.544Z,100.00
2023-01-06T03:13:46.348Z,100.00
2023-01-06T03:16:17.235Z,100.00
2023-01-06T03:18:51.380Z,100.00
2023-01-06T03:21:28.045Z,100.00
2023-01-06T03:23:57.516Z,100.00
2023-01-06T03:26:27.493Z,100.00
2023-01-06T03:28:57.177Z,100.00
2023-01-06T03:31:36.323Z,100.00
2023-01-06T03:34:18.581Z,100.00
2023-01-06T03:36:54.934Z,100.00
2023-01-06T03:39:35.558Z,100.00
2023-01-06T03:42:45.753Z,100.00
2023-01-06T03:45:40.803Z,100.00
2023-01-06T03:48:20.456Z,100.00
2023-01-06T03:50:54.575Z,100.00
2023-01-06T03:53:34.424Z,100.00
2023-01-06T03:56:16.535Z,100.00
2023-01-06T03:58:49.955Z,100.00
2023-01-06T04:01:20.133Z,100.00
2023-01-06T04:03:52.814Z,100.00
2023-01-06T04:06:24.243Z,100.00
2023-01-06T04:08:54.216Z,100.00
2023-01-06T04:11:40.809Z,100.00
2023-01-06T04:14:12.026Z,100.00
2023-01-06T04:16:41.296Z,100.00
2023-01-06T04:19:11.433Z,100.00
2023-01-06T04:21:42.073Z,100.00
2023-01-06T04:24:12.506Z,100.00
2023-01-06T04:26:41.697Z,100.00
2023-01-06T04:29:11.055Z,100.00
2023-01-06T04:31:40.978Z,100.00
2023-01-06T04:34:10.332Z,100.00
2023-01-06T04:36:39.437Z,100.00
2023-01-06T04:39:10.534Z,100.00
2023-01-06T04:41:39.647Z,100.00
2023-01-06T04:44:08.797Z,100.00
2023-01-06T04:46:38.076Z,100.00
2023-01-06T04:49:07.377Z,100.00
2023-01-06T04:51:36.846Z,100.00
2023-01-06T04:54:06.268Z,100.00
2023-01-06T04:56:36.741Z,100.00
2023-01-06T04:59:06.665Z,100.00
2023-01-06T05:01:36.435Z,100.00
2023-01-06T05:04:07.188Z,100.00
2023-01-06T05:06:36.748Z,100.00
2023-01-06T05:09:06.044Z,100.00
2023-01-06T05:11:36.647Z,100.00
2023-01-06T05:14:06.291Z,100.00
2023-01-06T05:16:38.347Z,100.00
2023-01-06T05:19:07.496Z,100.00
2023-01-06T05:21:36.635Z,100.00
2023-01-06T05:24:06.541Z,100.00
2023-01-06T05:26:37.090Z,100.00
2023-01-06T05:29:06.193Z,100.00
2023-01-06T05:31:35.356Z,100.00
2023-01-06T05:34:04.458Z,100.00
2023-01-06T05:36:33.891Z,100.00
2023-01-06T05:39:03.275Z,100.00
2023-01-06T05:41:32.336Z,100.00
2023-01-06T05:44:02.862Z,100.00
2023-01-06T05:46:32.140Z,100.00
2023-01-06T05:49:01.368Z,100.00
2023-01-06T05:51:31.114Z,100.00
2023-01-06T05:54:00.201Z,100.00
2023-01-06T05:56:29.364Z,100.00
2023-01-06T05:58:58.724Z,100.00
2023-01-06T06:01:32.397Z,100.00
2023-01-06T06:04:01.722Z,100.00
2023-01-06T06:06:31.138Z,100.00
2023-01-06T06:09:00.658Z,100.00
2023-01-06T06:11:29.842Z,100.00
2023-01-06T06:14:00.483Z,100.00
2023-01-06T06:16:31.238Z,100.00
2023-01-06T06:19:00.741Z,100.00
2023-01-06T06:21:32.091Z,100.00
2023-01-06T06:24:01.842Z,100.00
2023-01-06T06:26:33.942Z,100.00
2023-01-06T06:29:03.225Z,100.00
2023-01-06T06:31:34.139Z,100.00
2023-01-06T06:34:04.912Z,100.00
2023-01-06T06:36:34.368Z,100.00
2023-01-06T06:39:03.554Z,100.00
2023-01-06T06:41:32.770Z,100.00
2023-01-06T06:44:02.078Z,100.00
2023-01-06T06:46:31.124Z,100.00
2023-01-06T06:49:01.678Z,100.00
2023-01-06T06:51:31.757Z,100.00
2023-01-06T06:54:00.843Z,100.00
2023-01-06T06:56:30.005Z,100.00
2023-01-06T06:58:59.102Z,100.00
2023-01-06T07:01:28.405Z,100.00
2023-01-06T07:03:57.535Z,100.00
2023-01-06T07:06:28.976Z,100.00
2023-01-06T07:08:58.708Z,100.00
2023-01-06T07:11:27.888Z,100.00
2023-01-06T07:13:57.137Z,100.00
2023-01-06T07:16:26.812Z,100.00
2023-01-06T07:18:56.086Z,100.00
2023-01-06T07:21:25.145Z,100.00
2023-01-06T07:23:55.679Z,100.00
2023-01-06T07:26:24.806Z,100.00
2023-01-06T07:28:53.790Z,100.00
2023-01-06T07:31:22.944Z,100.00
2023-01-06T07:33:52.064Z,100.00
2023-01-06T07:36:21.173Z,100.00
2023-01-06T07:38:50.286Z,100.00
2023-01-06T07:41:20.747Z,100.00
2023-01-06T07:43:50.100Z,100.00
2023-01-06T07:46:19.280Z,100.00
2023-01-06T07:48:48.524Z,100.00
2023-01-06T07:51:17.741Z,100.00
2023-01-06T07:53:47.148Z,100.00
2023-01-06T07:56:16.276Z,100.00
2023-01-06T07:58:46.926Z,100.00
2023-01-06T08:01:16.409Z,100.00
2023-01-06T08:03:45.526Z,100.00
2023-01-06T08:06:15.299Z,100.00
2023-01-06T08:08:44.497Z,100.00
2023-01-06T08:11:14.456Z,100.00
2023-01-06T08:13:43.678Z,100.00
2023-01-06T08:16:15.179Z,100.00
2023-01-06T08:18:44.284Z,100.00
2023-01-06T08:21:13.456Z,100.00
2023-01-06T08:23:42.754Z,100.00
2023-01-06T08:26:14.648Z,100.00
2023-01-06T08:28:45.648Z,100.00
2023-01-06T08:31:21.242Z,100.00
2023-01-06T08:33:51.877Z,100.00
2023-01-06T08:36:24.473Z,100.00
2023-01-06T08:38:53.950Z,100.00
2023-01-06T08:41:23.186Z,100.00
2023-01-06T08:43:52.509Z,100.00
2023-01-06T08:46:23.240Z,100.00
2023-01-06T08:48:52.480Z,100.00
2023-01-06T08:51:23.850Z,100.00
2023-01-06T08:53:54.077Z,100.00
2023-01-06T08:56:26.339Z,100.00
2023-01-06T08:58:58.291Z,100.00
2023-01-06T09:01:32.525Z,100.00
2023-01-06T09:04:05.210Z,100.00
2023-01-06T09:06:35.512Z,100.00
2023-01-06T09:09:06.103Z,100.00
2023-01-06T09:11:35.486Z,100.00
2023-01-06T09:14:04.728Z,100.00
2023-01-06T09:16:35.178Z,100.00
2023-01-06T09:19:04.318Z,100.00
2023-01-06T09:21:33.494Z,100.00
2023-01-06T09:24:02.602Z,100.00
2023-01-06T09:26:31.864Z,100.00
2023-01-06T09:29:01.086Z,100.00
2023-01-06T09:31:30.299Z,100.00
2023-01-06T09:34:00.854Z,100.00
2023-01-06T09:36:30.204Z,100.00
2023-01-06T09:38:59.274Z,100.00
2023-01-06T09:42:05.921Z,100.00
2023-01-06T09:44:43.467Z,100.00
2023-01-06T09:47:15.245Z,100.00
2023-01-06T09:49:50.942Z,100.00
2023-01-06T09:52:33.223Z,100.00
2023-01-06T09:55:08.168Z,100.00
2023-01-06T09:57:42.069Z,100.00
2023-01-06T10:00:27.471Z,100.00
2023-01-06T10:02:58.291Z,100.00
2023-01-06T10:05:41.415Z,100.00
2023-01-06T10:08:21.491Z,100.00
2023-01-06T10:11:05.565Z,100.00
2023-01-06T10:13:54.032Z,100.00
2023-01-06T10:16:36.213Z,100.00
2023-01-06T10:19:20.817Z,100.00
2023-01-06T10:22:01.375Z,100.00
2023-01-06T10:24:43.729Z,100.00
2023-01-06T10:27:26.108Z,100.00
2023-01-06T10:29:57.523Z,100.00
2023-01-06T10:32:32.628Z,100.00
2023-01-06T10:35:02.999Z,100.00
2023-01-06T10:37:42.478Z,100.00
2023-01-06T10:40:22.440Z,100.00
2023-01-06T10:42:57.532Z,100.00
2023-01-06T10:45:33.456Z,100.00
2023-01-06T10:48:04.288Z,100.00
2023-01-06T10:50:35.627Z,100.00
2023-01-06T10:53:07.138Z,100.00
2023-01-06T10:55:48.488Z,100.00
2023-01-06T10:58:36.838Z,100.00
2023-01-06T11:01:12.179Z,100.00
2023-01-06T11:03:42.924Z,100.00
2023-01-06T11:06:19.907Z,100.00
2023-01-06T11:08:50.821Z,100.00
2023-01-06T11:11:29.415Z,100.00
2023-01-06T11:14:03.507Z,100.00
2023-01-06T11:16:36.957Z,100.00
2023-01-06T11:19:09.787Z,100.00
2023-01-06T11:21:42.430Z,100.00
2023-01-06T11:24:20.501Z,100.00
2023-01-06T11:26:54.588Z,100.00
2023-01-06T11:29:30.864Z,100.00
2023-01-06T11:32:06.759Z,100.00
2023-01-06T11:34:36.235Z,100.00
2023-01-06T11:37:06.248Z,100.00
2023-01-06T11:39:38.566Z,100.00
2023-01-06T11:42:14.405Z,100.00
2023-01-06T11:44:44.693Z,100.00
2023-01-06T11:47:18.098Z,100.00
2023-01-06T11:49:51.355Z,100.00
2023-01-06T11:52:27.182Z,100.00
2023-01-06T11:55:20.067Z,100.00
2023-01-06T11:57:58.394Z,100.00
2023-01-06T12:00:46.149Z,100.00
2023-01-06T12:03:24.638Z,100.00
2023-01-06T12:06:00.306Z,100.00
2023-01-06T12:08:36.247Z,100.00
2023-01-06T12:11:15.066Z,100.00
2023-01-06T12:14:07.963Z,100.00
2023-01-06T12:16:40.806Z,99.50
2023-01-06T12:19:16.074Z,100.00
2023-01-06T12:21:45.268Z,98.22
2023-01-06T12:24:20.651Z,98.07
2023-01-06T12:26:53.007Z,98.55
2023-01-06T12:29:23.648Z,97.37
2023-01-06T12:32:03.782Z,94.90
2023-01-06T12:34:38.309Z,94.38
2023-01-06T12:37:21.851Z,93.02
2023-01-06T12:40:01.016Z,88.33
2023-01-06T12:42:39.030Z,89.95
2023-01-06T12:45:16.619Z,91.82
2023-01-06T12:47:53.093Z,83.49
2023-01-06T12:50:36.187Z,80.03
2023-01-06T12:53:20.486Z,74.29
2023-01-06T12:56:20.022Z,73.11
2023-01-06T12:58:57.530Z,73.38
2023-01-06T13:01:31.697Z,73.20
2023-01-06T13:04:45.197Z,71.80
2023-01-06T13:07:27.664Z,72.36
2023-01-06T13:10:11.263Z,73.54
2023-01-06T13:12:54.491Z,71.65
2023-01-06T13:15:29.153Z,75.78
2023-01-06T13:18:12.188Z,79.46
2023-01-06T13:20:45.838Z,76.85
2023-01-06T13:23:41.703Z,75.77
2023-01-06T13:26:55.400Z,77.88
2023-01-06T13:29:42.450Z,73.32
2023-01-06T13:32:40.496Z,65.96
2023-01-06T13:35:32.863Z,60.63
2023-01-06T13:38:39.578Z,59.70
2023-01-06T13:41:16.617Z,58.39
2023-01-06T13:43:48.797Z,59.59
2023-01-06T13:46:23.094Z,59.60
2023-01-06T13:48:58.685Z,59.81
2023-01-06T13:51:32.931Z,66.06
2023-01-06T13:54:03.057Z,67.48
2023-01-06T13:56:34.138Z,68.84
2023-01-06T13:59:25.390Z,71.18
2023-01-06T14:01:59.649Z,73.71
2023-01-06T14:04:51.069Z,71.46
2023-01-06T14:07:37.718Z,69.13
2023-01-06T14:10:27.343Z,64.52
2023-01-06T14:12:57.128Z,57.81
2023-01-06T14:15:32.098Z,54.16
2023-01-06T14:18:02.744Z,48.34
2023-01-06T14:20:36.346Z,47.92
2023-01-06T14:23:18.499Z,46.31
2023-01-06T14:25:52.647Z,44.91
2023-01-06T14:28:30.568Z,43.29
2023-01-06T14:31:41.709Z,41.73
2023-01-06T14:34:17.510Z,40.82
2023-01-06T14:36:51.908Z,40.36
2023-01-06T14:39:27.773Z,40.06
2023-01-06T14:42:03.682Z,40.59
2023-01-06T14:44:44.597Z,40.75
2023-01-06T14:47:21.956Z,41.18
2023-01-06T14:49:57.303Z,41.57
2023-01-06T14:52:34.652Z,43.04
2023-01-06T14:55:09.685Z,45.00
2023-01-06T14:57:40.373Z,49.08
2023-01-06T15:00:17.984Z,57.02
2023-01-06T15:02:50.018Z,66.43
2023-01-06T15:05:23.062Z,76.73
2023-01-06T15:08:08.402Z,86.25
2023-01-06T15:10:41.041Z,95.25
2023-01-06T15:13:23.310Z,100.00
2023-01-06T15:15:55.587Z,100.00
2023-01-06T15:18:24.911Z,100.00
2023-01-06T15:20:56.644Z,100.00
2023-01-06T15:23:27.659Z,100.00
2023-01-06T15:25:57.730Z,100.00
2023-01-06T15:28:28.722Z,100.00
2023-01-06T15:31:00.138Z,100.00
2023-01-06T15:33:39.827Z,100.00
2023-01-06T15:36:11.341Z,100.00
2023-01-06T15:38:43.391Z,100.00
2023-01-06T15:41:32.685Z,100.00
2023-01-06T15:44:21.081Z,100.00
2023-01-06T15:46:51.123Z,100.00
2023-01-06T15:49:29.336Z,100.00
2023-01-06T15:52:02.961Z,100.00
2023-01-06T15:54:36.707Z,100.00
2023-01-06T15:57:17.446Z,100.00
2023-01-06T15:59:57.897Z,100.00
2023-01-06T16:02:33.359Z,100.00
2023-01-06T16:05:03.218Z,100.00
2023-01-06T16:07:40.409Z,100.00
2023-01-06T16:10:38.417Z,100.00
2023-01-06T16:13:30.051Z,100.00
2023-01-06T16:16:09.960Z,100.00
2023-01-06T16:18:39.904Z,100.00
2023-01-06T16:21:18.784Z,100.00
2023-01-06T16:23:52.286Z,100.00
2023-01-06T16:26:29.414Z,100.00
2023-01-06T16:29:02.861Z,100.00
2023-01-06T16:31:36.761Z,100.00
2023-01-06T16:34:26.850Z,100.00
2023-01-06T16:36:58.629Z,100.00
2023-01-06T16:39:29.217Z,100.00
2023-01-06T16:42:41.216Z,100.00
2023-01-06T16:45:23.344Z,100.00
2023-01-06T16:47:54.992Z,100.00
2023-01-06T16:50:39.806Z,100.00
2023-01-06T16:53:18.312Z,100.00
2023-01-06T16:55:53.084Z,100.00
2023-01-06T16:58:26.190Z,100.00
2023-01-06T17:00:58.337Z,100.00
2023-01-06T17:03:32.252Z,100.00
2023-01-06T17:06:01.523Z,100.00
2023-01-06T17:08:34.043Z,100.00
2023-01-06T17:11:13.307Z,100.00
2023-01-06T17:13:48.342Z,100.00
2023-01-06T17:16:21.992Z,100.00
2023-01-06T17:18:56.294Z,100.00
2023-01-06T17:21:30.782Z,100.00
2023-01-06T17:24:10.925Z,100.00
2023-01-06T17:26:40.979Z,100.00
2023-01-06T17:29:18.278Z,100.00
2023-01-06T17:31:50.329Z,100.00
2023-01-06T17:34:24.609Z,100.00
2023-01-06T17:36:57.421Z,100.00
2023-01-06T17:39:29.936Z,100.00
2023-01-06T17:42:04.999Z,100.00
2023-01-06T17:44:41.059Z,100.00
2023-01-06T17:47:27.741Z,100.00
2023-01-06T17:49:59.249Z,100.00
2023-01-06T17:52:33.339Z,100.00
2023-01-06T17:55:42.097Z,100.00
2023-01-06T17:58:15.689Z,100.00
2023-01-06T18:00:47.678Z,100.00
2023-01-06T18:03:20.944Z,100.00
2023-01-06T18:06:26.345Z,100.00
2023-01-06T18:09:05.169Z,100.00
2023-01-06T18:11:38.843Z,100.00
2023-01-06T18:14:25.957Z,100.00
2023-01-06T18:16:59.197Z,100.00
2023-01-06T18:19:34.514Z,100.00
2023-01-06T18:22:13.198Z,100.00
2023-01-06T18:24:43.056Z,100.00
2023-01-06T18:27:23.104Z,100.00
2023-01-06T18:29:53.520Z,100.00
2023-01-06T18:32:31.855Z,100.00
2023-01-06T18:35:03.268Z,100.00
2023-01-06T18:37:36.051Z,100.00
2023-01-06T18:40:11.695Z,100.00
2023-01-06T18:42:44.645Z,100.00
2023-01-06T18:45:23.365Z,100.00
2023-01-06T18:48:01.612Z,100.00
2023-01-06T18:50:34.826Z,100.00
2023-01-06T18:53:12.011Z,100.00
2023-01-06T18:55:45.577Z,100.00
2023-01-06T18:58:31.198Z,100.00
2023-01-06T19:01:03.589Z,100.00
2023-01-06T19:03:42.861Z,100.00
2023-01-06T19:06:43.874Z,100.00
2023-01-06T19:09:22.603Z,100.00
2023-01-06T19:12:03.192Z,100.00
2023-01-06T19:14:37.615Z,100.00
2023-01-06T19:17:22.397Z,100.00
2023-01-06T19:19:53.666Z,100.00
2023-01-06T19:22:28.139Z,100.00
2023-01-06T19:25:03.391Z,100.00
2023-01-06T19:27:40.907Z,100.00
2023-01-06T19:30:45.255Z,100.00
2023-01-06T19:33:28.318Z,100.00
2023-01-06T19:36:28.410Z,100.00
2023-01-06T19:38:58.464Z,100.00
2023-01-06T19:41:31.236Z,100.00
2023-01-06T19:44:10.913Z,100.00
2023-01-06T19:46:43.335Z,100.00
2023-01-06T19:49:17.862Z,100.00
2023-01-06T19:51:51.485Z,100.00
2023-01-06T19:54:27.959Z,100.00
2023-01-06T19:56:57.482Z,100.00
2023-01-06T19:59:31.547Z,100.00
2023-01-06T20:02:16.620Z,100.00
2023-01-06T20:04:45.720Z,100.00
2023-01-06T20:07:16.882Z,100.00
2023-01-06T20:09:46.931Z,100.00
2023-01-06T20:12:16.202Z,100.00
2023-01-06T20:14:45.736Z,100.00
2023-01-06T20:17:17.327Z,100.00
2023-01-06T20:19:46.451Z,100.00
2023-01-06T20:22:19.050Z,100.00
2023-01-06T20:24:48.394Z,100.00
2023-01-06T20:27:18.335Z,100.00
2023-01-06T20:29:47.778Z,100.00
2023-01-06T20:32:20.376Z,100.00
2023-01-06T20:34:49.620Z,100.00
2023-01-06T20:37:21.423Z,100.00
2023-01-06T20:39:51.410Z,100.00
2023-01-06T20:42:23.739Z,100.00
2023-01-06T20:44:53.423Z,100.00
2023-01-06T20:47:23.446Z,100.00
2023-01-06T20:49:53.479Z,100.00
2023-01-06T20:52:24.477Z,100.00
2023-01-06T20:54:54.196Z,100.00
2023-01-06T20:57:23.620Z,100.00
2023-01-06T20:59:53.515Z,100.00
2023-01-06T21:02:23.016Z,100.00
2023-01-06T21:04:52.345Z,100.00
2023-01-06T21:07:23.457Z,100.00
2023-01-06T21:09:52.791Z,100.00
2023-01-06T21:12:22.429Z,100.00
2023-01-06T21:14:51.806Z,100.00
2023-01-06T21:17:21.413Z,100.00
2023-01-06T21:19:50.774Z,100.00
2023-01-06T21:22:20.056Z,100.00
2023-01-06T21:24:53.835Z,100.00
2023-01-06T21:27:25.567Z,100.00
2023-01-06T21:29:58.981Z,100.00
2023-01-06T21:32:30.769Z,100.00
2023-01-06T21:35:04.246Z,100.00
2023-01-06T21:37:36.963Z,100.00
2023-01-06T21:40:10.514Z,100.00
2023-01-06T21:43:00.668Z,100.00
2023-01-06T21:45:33.367Z,100.00
2023-01-06T21:48:05.553Z,100.00
2023-01-06T21:50:41.320Z,100.00
2023-01-06T21:53:13.028Z,100.00
2023-01-06T21:55:46.211Z,100.00
2023-01-06T21:58:17.713Z,100.00
2023-01-06T22:00:47.201Z,100.00
2023-01-06T22:03:16.549Z,100.00
2023-01-06T22:05:46.513Z,100.00
2023-01-06T22:08:15.800Z,100.00
2023-01-06T22:10:46.946Z,100.00
2023-01-06T22:13:22.309Z,100.00
2023-01-06T22:15:53.966Z,100.00
2023-01-06T22:18:23.508Z,100.00
2023-01-06T22:20:53.487Z,100.00
2023-01-06T22:23:23.191Z,100.00
2023-01-06T22:25:54.152Z,100.00
2023-01-06T22:28:23.891Z,100.00
2023-01-06T22:30:54.821Z,100.00
2023-01-06T22:33:25.198Z,100.00
2023-01-06T22:35:58.672Z,100.00
2023-01-06T22:38:28.541Z,100.00
2023-01-06T22:40:59.586Z,100.00
2023-01-06T22:43:29.092Z,100.00
2023-01-06T22:45:58.575Z,100.00
2023-01-06T22:48:28.302Z,100.00
2023-01-06T22:50:58.534Z,100.00
2023-01-06T22:53:29.170Z,100.00
2023-01-06T22:56:01.673Z,100.00
2023-01-06T22:58:32.070Z,100.00
2023-01-06T23:01:01.318Z,100.00
2023-01-06T23:03:31.127Z,100.00
2023-01-06T23:06:02.873Z,100.00
2023-01-06T23:08:35.084Z,100.00
2023-01-06T23:11:08.631Z,100.00
2023-01-06T23:13:39.258Z,100.00
2023-01-06T23:16:11.725Z,100.00
2023-01-06T23:18:44.972Z,100.00
2023-01-06T23:21:16.981Z,100.00
2023-01-06T23:23:47.345Z,100.00
2023-01-06T23:26:21.202Z,100.00
2023-01-06T23:28:51.421Z,100.00
2023-01-06T23:31:23.515Z,100.00
2023-01-06T23:33:55.874Z,100.00
2023-01-06T23:36:28.103Z,100.00
2023-01-06T23:38:58.111Z,100.00
2023-01-06T23:41:32.218Z,100.00
2023-01-06T23:44:02.313Z,100.00
2023-01-06T23:46:33.687Z,100.00
2023-01-06T23:49:02.919Z,100.00
2023-01-06T23:51:32.597Z,100.00
2023-01-06T23:54:03.775Z,100.00
2023-01-06T23:56:37.375Z,100.00
2023-01-06T23:59:09.089Z,100.00
